sensor_id;sensor_type;location;lat;lon;timestamp;pressure;altitude;pressure_sealevel;temperature;humidity
3176;BME280;1599;51.564;6.990;2023-11-19T00:00:43;100323.19;;;11.60;100.00
3176;BME280;1599;51.564;6.990;2023-11-19T00:03:09;100322.09;;;11.61;100.00
3176;BME280;1599;51.564;6.990;2023-11-19T00:05:36;100322.66;;;11.63;100.00
3176;BME280;1599;51.564;6.990;2023-11-19T00:08:02;100323.34;;;11.70;100.00
3176;BME280;1599;51.564;6.990;2023-11-19T00:10:27;100319.25;;;11.73;100.00
3176;BME280;1599;51.564;6.990;2023-11-19T00:12:53;100316.66;;;11.66;100.00
3176;BME280;1599;51.564;6.990;2023-11-19T00:15:19;100317.84;;;11.70;100.00
3176;BME280;1599;51.564;6.990;2023-11-19T00:17:46;100310.16;;;11.72;100.00
3176;BME280;1599;51.564;6.990;2023-11-19T00:20:17;100316.19;;;11.69;100.00
3176;BME280;1599;51.564;6.990;2023-11-19T00:22:44;100320.38;;;11.77;100.00
3176;BME280;1599;51.564;6.990;2023-11-19T00:25:10;100316.81;;;11.76;100.00
3176;BME280;1599;51.564;6.990;2023-11-19T00:27:36;100316.34;;;11.85;100.00
3176;BME280;1599;51.564;6.990;2023-11-19T00:30:06;100314.44;;;11.85;100.00
3176;BME280;1599;51.564;6.990;2023-11-19T00:32:33;100306.22;;;11.90;100.00
3176;BME280;1599;51.564;6.990;2023-11-19T00:34:58;100297.19;;;11.95;100.00
3176;BME280;1599;51.564;6.990;2023-11-19T00:37:24;100290.84;;;11.94;100.00
3176;BME280;1599;51.564;6.990;2023-11-19T00:39:50;100292.50;;;11.95;100.00
3176;BME280;1599;51.564;6.990;2023-11-19T00:42:17;100303.50;;;11.95;100.00
3176;BME280;1599;51.564;6.990;2023-11-19T00:44:43;100283.47;;;12.00;100.00
3176;BME280;1599;51.564;6.990;2023-11-19T00:47:09;100275.78;;;12.02;100.00
3176;BME280;1599;51.564;6.990;2023-11-19T00:49:34;100285.13;;;12.01;100.00
3176;BME280;1599;51.564;6.990;2023-11-19T00:52:00;100283.03;;;12.13;100.00
3176;BME280;1599;51.564;6.990;2023-11-19T00:54:27;100278.16;;;12.20;100.00
3176;BME280;1599;51.564;6.990;2023-11-19T00:56:53;100269.94;;;12.25;100.00
3176;BME280;1599;51.564;6.990;2023-11-19T00:59:19;100259.22;;;12.28;100.00
3176;BME280;1599;51.564;6.990;2023-11-19T01:01:45;100260.66;;;12.36;100.00
3176;BME280;1599;51.564;6.990;2023-11-19T01:04:11;100263.72;;;12.39;100.00
3176;BME280;1599;51.564;6.990;2023-11-19T01:06:37;100259.06;;;12.45;100.00
3176;BME280;1599;51.564;6.990;2023-11-19T01:09:02;100269.03;;;12.51;100.00
3176;BME280;1599;51.564;6.990;2023-11-19T01:11:29;100262.72;;;12.56;100.00
3176;BME280;1599;51.564;6.990;2023-11-19T01:13:55;100265.69;;;12.49;100.00
3176;BME280;1599;51.564;6.990;2023-11-19T01:16:20;100270.97;;;12.51;100.00
3176;BME280;1599;51.564;6.990;2023-11-19T01:18:49;100281.19;;;12.55;100.00
3176;BME280;1599;51.564;6.990;2023-11-19T01:21:15;100272.94;;;12.60;100.00
3176;BME280;1599;51.564;6.990;2023-11-19T01:23:44;100270.22;;;12.65;100.00
3176;BME280;1599;51.564;6.990;2023-11-19T01:26:14;100265.31;;;12.72;100.00
3176;BME280;1599;51.564;6.990;2023-11-19T01:28:40;100263.13;;;12.74;100.00
3176;BME280;1599;51.564;6.990;2023-11-19T01:31:08;100262.66;;;12.82;100.00
3176;BME280;1599;51.564;6.990;2023-11-19T01:33:36;100272.03;;;12.86;100.00
3176;BME280;1599;51.564;6.990;2023-11-19T01:36:02;100275.28;;;12.78;100.00
3176;BME280;1599;51.564;6.990;2023-11-19T01:38:29;100273.97;;;12.91;100.00
3176;BME280;1599;51.564;6.990;2023-11-19T01:40:57;100269.81;;;12.88;100.00
3176;BME280;1599;51.564;6.990;2023-11-19T01:43:38;100260.50;;;12.94;100.00
3176;BME280;1599;51.564;6.990;2023-11-19T01:46:06;100253.34;;;12.98;100.00
3176;BME280;1599;51.564;6.990;2023-11-19T01:48:34;100249.50;;;12.99;100.00
3176;BME280;1599;51.564;6.990;2023-11-19T01:51:05;100248.09;;;12.97;100.00
3176;BME280;1599;51.564;6.990;2023-11-19T01:53:35;100232.41;;;12.97;100.00
3176;BME280;1599;51.564;6.990;2023-11-19T01:56:03;100234.63;;;13.06;100.00
3176;BME280;1599;51.564;6.990;2023-11-19T01:58:30;100222.00;;;13.10;100.00
3176;BME280;1599;51.564;6.990;2023-11-19T02:00:56;100221.38;;;13.02;100.00
3176;BME280;1599;51.564;6.990;2023-11-19T02:03:24;100234.16;;;13.14;100.00
3176;BME280;1599;51.564;6.990;2023-11-19T02:05:51;100219.19;;;13.05;100.00
3176;BME280;1599;51.564;6.990;2023-11-19T02:08:18;100230.28;;;13.15;100.00
3176;BME280;1599;51.564;6.990;2023-11-19T02:10:44;100215.97;;;13.18;100.00
3176;BME280;1599;51.564;6.990;2023-11-19T02:13:10;100207.16;;;13.21;100.00
3176;BME280;1599;51.564;6.990;2023-11-19T02:15:36;100201.09;;;13.19;100.00
3176;BME280;1599;51.564;6.990;2023-11-19T02:18:23;100200.22;;;13.13;100.00
3176;BME280;1599;51.564;6.990;2023-11-19T02:20:50;100199.41;;;13.13;100.00
3176;BME280;1599;51.564;6.990;2023-11-19T02:23:16;100214.03;;;13.18;100.00
3176;BME280;1599;51.564;6.990;2023-11-19T02:28:18;100204.06;;;13.12;100.00
3176;BME280;1599;51.564;6.990;2023-11-19T02:30:44;100209.38;;;13.24;100.00
3176;BME280;1599;51.564;6.990;2023-11-19T02:33:09;100198.84;;;13.16;100.00
3176;BME280;1599;51.564;6.990;2023-11-19T02:35:35;100201.66;;;13.26;100.00
3176;BME280;1599;51.564;6.990;2023-11-19T02:38:01;100196.38;;;13.19;100.00
3176;BME280;1599;51.564;6.990;2023-11-19T02:40:29;100202.16;;;13.18;100.00
3176;BME280;1599;51.564;6.990;2023-11-19T02:42:55;100199.72;;;13.26;100.00
3176;BME280;1599;51.564;6.990;2023-11-19T02:45:25;100196.13;;;13.21;100.00
3176;BME280;1599;51.564;6.990;2023-11-19T02:47:54;100199.44;;;13.23;100.00
3176;BME280;1599;51.564;6.990;2023-11-19T02:50:21;100194.75;;;13.23;100.00
3176;BME280;1599;51.564;6.990;2023-11-19T02:52:54;100198.88;;;13.26;100.00
3176;BME280;1599;51.564;6.990;2023-11-19T02:55:22;100191.16;;;13.28;100.00
3176;BME280;1599;51.564;6.990;2023-11-19T02:57:50;100199.44;;;13.28;100.00
3176;BME280;1599;51.564;6.990;2023-11-19T03:00:20;100196.69;;;13.33;100.00
3176;BME280;1599;51.564;6.990;2023-11-19T03:02:51;100193.38;;;13.26;100.00
3176;BME280;1599;51.564;6.990;2023-11-19T03:05:26;100187.00;;;13.20;100.00
3176;BME280;1599;51.564;6.990;2023-11-19T03:07:52;100186.16;;;13.15;100.00
3176;BME280;1599;51.564;6.990;2023-11-19T03:10:18;100187.84;;;13.26;100.00
3176;BME280;1599;51.564;6.990;2023-11-19T03:12:44;100175.16;;;13.25;100.00
3176;BME280;1599;51.564;6.990;2023-11-19T03:15:11;100190.06;;;13.24;100.00
3176;BME280;1599;51.564;6.990;2023-11-19T03:17:41;100179.03;;;13.24;100.00
3176;BME280;1599;51.564;6.990;2023-11-19T03:20:11;100170.47;;;13.25;100.00
3176;BME280;1599;51.564;6.990;2023-11-19T03:22:41;100169.63;;;13.25;100.00
3176;BME280;1599;51.564;6.990;2023-11-19T03:25:08;100177.34;;;13.23;100.00
3176;BME280;1599;51.564;6.990;2023-11-19T03:27:39;100181.19;;;13.17;100.00
3176;BME280;1599;51.564;6.990;2023-11-19T03:30:06;100193.91;;;13.23;100.00
3176;BME280;1599;51.564;6.990;2023-11-19T03:32:32;100203.84;;;13.24;100.00
3176;BME280;1599;51.564;6.990;2023-11-19T03:34:59;100196.13;;;13.21;100.00
3176;BME280;1599;51.564;6.990;2023-11-19T03:37:26;100191.13;;;13.18;100.00
3176;BME280;1599;51.564;6.990;2023-11-19T03:39:54;100185.38;;;13.24;100.00
3176;BME280;1599;51.564;6.990;2023-11-19T03:42:20;100179.28;;;13.17;100.00
3176;BME280;1599;51.564;6.990;2023-11-19T03:44:47;100184.50;;;13.14;100.00
3176;BME280;1599;51.564;6.990;2023-11-19T03:47:14;100191.66;;;13.15;100.00
3176;BME280;1599;51.564;6.990;2023-11-19T03:49:40;100188.66;;;13.16;100.00
3176;BME280;1599;51.564;6.990;2023-11-19T03:52:06;100202.44;;;13.11;100.00
3176;BME280;1599;51.564;6.990;2023-11-19T03:54:32;100191.66;;;13.10;100.00
3176;BME280;1599;51.564;6.990;2023-11-19T03:56:58;100196.53;;;12.97;100.00
3176;BME280;1599;51.564;6.990;2023-11-19T03:59:25;100201.53;;;13.00;100.00
3176;BME280;1599;51.564;6.990;2023-11-19T04:01:51;100196.00;;;13.00;100.00
3176;BME280;1599;51.564;6.990;2023-11-19T04:04:19;100195.69;;;12.92;100.00
3176;BME280;1599;51.564;6.990;2023-11-19T04:06:44;100198.16;;;12.93;100.00
3176;BME280;1599;51.564;6.990;2023-11-19T04:09:10;100200.41;;;12.96;100.00
3176;BME280;1599;51.564;6.990;2023-11-19T04:11:36;100190.69;;;12.84;100.00
3176;BME280;1599;51.564;6.990;2023-11-19T04:14:02;100197.88;;;12.85;100.00
3176;BME280;1599;51.564;6.990;2023-11-19T04:16:28;100193.16;;;12.85;100.00
3176;BME280;1599;51.564;6.990;2023-11-19T04:18:54;100197.78;;;12.75;100.00
3176;BME280;1599;51.564;6.990;2023-11-19T04:21:20;100198.06;;;12.68;100.00
3176;BME280;1599;51.564;6.990;2023-11-19T04:23:45;100193.28;;;12.54;100.00
3176;BME280;1599;51.564;6.990;2023-11-19T04:26:11;100197.94;;;12.48;100.00
3176;BME280;1599;51.564;6.990;2023-11-19T04:28:37;100197.91;;;12.43;100.00
3176;BME280;1599;51.564;6.990;2023-11-19T04:31:04;100207.22;;;12.37;100.00
3176;BME280;1599;51.564;6.990;2023-11-19T04:33:30;100206.00;;;12.23;100.00
3176;BME280;1599;51.564;6.990;2023-11-19T04:35:55;100216.25;;;12.27;100.00
3176;BME280;1599;51.564;6.990;2023-11-19T04:38:21;100218.09;;;12.17;100.00
3176;BME280;1599;51.564;6.990;2023-11-19T04:40:47;100232.31;;;12.04;100.00
3176;BME280;1599;51.564;6.990;2023-11-19T04:43:12;100227.88;;;12.03;100.00
3176;BME280;1599;51.564;6.990;2023-11-19T04:45:38;100215.16;;;11.97;100.00
3176;BME280;1599;51.564;6.990;2023-11-19T04:48:05;100216.31;;;12.01;100.00
3176;BME280;1599;51.564;6.990;2023-11-19T04:50:31;100221.25;;;11.99;100.00
3176;BME280;1599;51.564;6.990;2023-11-19T04:52:56;100223.63;;;11.90;100.00
3176;BME280;1599;51.564;6.990;2023-11-19T04:55:22;100219.56;;;11.98;100.00
3176;BME280;1599;51.564;6.990;2023-11-19T04:57:48;100230.59;;;11.98;100.00
3176;BME280;1599;51.564;6.990;2023-11-19T05:00:14;100234.41;;;11.97;100.00
3176;BME280;1599;51.564;6.990;2023-11-19T05:02:40;100222.88;;;12.00;100.00
3176;BME280;1599;51.564;6.990;2023-11-19T05:05:06;100222.28;;;11.93;100.00
3176;BME280;1599;51.564;6.990;2023-11-19T05:07:31;100222.06;;;11.99;100.00
3176;BME280;1599;51.564;6.990;2023-11-19T05:09:57;100226.25;;;12.02;100.00
3176;BME280;1599;51.564;6.990;2023-11-19T05:12:23;100233.63;;;11.96;100.00
3176;BME280;1599;51.564;6.990;2023-11-19T05:14:50;100223.22;;;12.03;100.00
3176;BME280;1599;51.564;6.990;2023-11-19T05:17:19;100234.81;;;12.10;100.00
3176;BME280;1599;51.564;6.990;2023-11-19T05:19:45;100228.78;;;12.13;100.00
3176;BME280;1599;51.564;6.990;2023-11-19T05:22:11;100239.06;;;12.23;100.00
3176;BME280;1599;51.564;6.990;2023-11-19T05:24:36;100223.16;;;12.30;100.00
3176;BME280;1599;51.564;6.990;2023-11-19T05:27:02;100230.84;;;12.28;100.00
3176;BME280;1599;51.564;6.990;2023-11-19T05:29:28;100217.13;;;12.33;100.00
3176;BME280;1599;51.564;6.990;2023-11-19T05:31:55;100222.63;;;12.33;100.00
3176;BME280;1599;51.564;6.990;2023-11-19T05:34:21;100217.75;;;12.45;100.00
3176;BME280;1599;51.564;6.990;2023-11-19T05:36:46;100231.53;;;12.45;100.00
3176;BME280;1599;51.564;6.990;2023-11-19T05:39:13;100221.09;;;12.52;100.00
3176;BME280;1599;51.564;6.990;2023-11-19T05:41:38;100226.53;;;12.42;100.00
3176;BME280;1599;51.564;6.990;2023-11-19T05:44:04;100234.78;;;12.37;100.00
3176;BME280;1599;51.564;6.990;2023-11-19T05:46:30;100225.31;;;12.28;100.00
3176;BME280;1599;51.564;6.990;2023-11-19T05:48:55;100231.38;;;12.25;100.00
3176;BME280;1599;51.564;6.990;2023-11-19T05:51:21;100222.72;;;12.11;100.00
3176;BME280;1599;51.564;6.990;2023-11-19T05:53:49;100236.81;;;12.15;100.00
3176;BME280;1599;51.564;6.990;2023-11-19T05:56:16;100239.81;;;12.13;100.00
3176;BME280;1599;51.564;6.990;2023-11-19T05:58:47;100238.38;;;12.06;100.00
3176;BME280;1599;51.564;6.990;2023-11-19T06:01:13;100225.81;;;12.15;100.00
3176;BME280;1599;51.564;6.990;2023-11-19T06:03:39;100230.66;;;12.08;100.00
3176;BME280;1599;51.564;6.990;2023-11-19T06:06:06;100220.78;;;12.07;100.00
3176;BME280;1599;51.564;6.990;2023-11-19T06:08:32;100237.41;;;12.22;100.00
3176;BME280;1599;51.564;6.990;2023-11-19T06:10:58;100228.78;;;12.13;100.00
3176;BME280;1599;51.564;6.990;2023-11-19T06:13:23;100231.50;;;12.08;100.00
3176;BME280;1599;51.564;6.990;2023-11-19T06:15:51;100241.69;;;12.08;100.00
3176;BME280;1599;51.564;6.990;2023-11-19T06:18:16;100242.63;;;11.92;100.00
3176;BME280;1599;51.564;6.990;2023-11-19T06:20:45;100240.53;;;11.99;100.00
3176;BME280;1599;51.564;6.990;2023-11-19T06:23:11;100251.56;;;12.04;100.00
3176;BME280;1599;51.564;6.990;2023-11-19T06:25:36;100251.53;;;11.99;100.00
3176;BME280;1599;51.564;6.990;2023-11-19T06:28:03;100253.22;;;12.05;100.00
3176;BME280;1599;51.564;6.990;2023-11-19T06:30:29;100251.50;;;11.94;100.00
3176;BME280;1599;51.564;6.990;2023-11-19T06:32:56;100252.00;;;11.91;100.00
3176;BME280;1599;51.564;6.990;2023-11-19T06:35:21;100263.63;;;11.98;100.00
3176;BME280;1599;51.564;6.990;2023-11-19T06:37:47;100253.09;;;11.90;100.00
3176;BME280;1599;51.564;6.990;2023-11-19T06:40:13;100250.34;;;11.90;100.00
3176;BME280;1599;51.564;6.990;2023-11-19T06:42:41;100252.28;;;11.94;100.00
3176;BME280;1599;51.564;6.990;2023-11-19T06:45:07;100259.44;;;11.90;100.00
3176;BME280;1599;51.564;6.990;2023-11-19T06:47:32;100259.78;;;11.99;100.00
3176;BME280;1599;51.564;6.990;2023-11-19T06:49:59;100274.63;;;11.98;100.00
3176;BME280;1599;51.564;6.990;2023-11-19T06:52:24;100276.03;;;12.00;100.00
3176;BME280;1599;51.564;6.990;2023-11-19T06:54:50;100273.03;;;12.02;100.00
3176;BME280;1599;51.564;6.990;2023-11-19T06:57:16;100275.25;;;12.05;100.00
3176;BME280;1599;51.564;6.990;2023-11-19T06:59:42;100277.25;;;12.09;100.00
3176;BME280;1599;51.564;6.990;2023-11-19T07:02:08;100278.88;;;12.10;100.00
3176;BME280;1599;51.564;6.990;2023-11-19T07:04:34;100287.94;;;12.06;100.00
3176;BME280;1599;51.564;6.990;2023-11-19T07:07:00;100261.47;;;12.05;100.00
3176;BME280;1599;51.564;6.990;2023-11-19T07:09:26;100273.69;;;12.14;100.00
3176;BME280;1599;51.564;6.990;2023-11-19T07:11:52;100274.72;;;12.08;100.00
3176;BME280;1599;51.564;6.990;2023-11-19T07:14:19;100275.56;;;12.08;100.00
3176;BME280;1599;51.564;6.990;2023-11-19T07:16:45;100283.97;;;11.97;100.00
3176;BME280;1599;51.564;6.990;2023-11-19T07:19:12;100282.00;;;11.92;100.00
3176;BME280;1599;51.564;6.990;2023-11-19T07:21:41;100291.66;;;11.95;100.00
3176;BME280;1599;51.564;6.990;2023-11-19T07:24:10;100300.28;;;12.03;100.00
3176;BME280;1599;51.564;6.990;2023-11-19T07:26:42;100301.97;;;12.04;100.00
3176;BME280;1599;51.564;6.990;2023-11-19T07:29:09;100299.97;;;12.00;100.00
3176;BME280;1599;51.564;6.990;2023-11-19T07:31:35;100309.28;;;11.94;100.00
3176;BME280;1599;51.564;6.990;2023-11-19T07:34:01;100316.72;;;11.93;100.00
3176;BME280;1599;51.564;6.990;2023-11-19T07:36:26;100318.63;;;11.93;100.00
3176;BME280;1599;51.564;6.990;2023-11-19T07:38:52;100323.56;;;11.91;100.00
3176;BME280;1599;51.564;6.990;2023-11-19T07:41:18;100315.81;;;11.88;100.00
3176;BME280;1599;51.564;6.990;2023-11-19T07:43:45;100320.88;;;11.96;100.00
3176;BME280;1599;51.564;6.990;2023-11-19T07:46:15;100317.00;;;11.97;100.00
3176;BME280;1599;51.564;6.990;2023-11-19T07:48:40;100315.97;;;12.03;100.00
3176;BME280;1599;51.564;6.990;2023-11-19T07:51:07;100318.16;;;12.01;100.00
3176;BME280;1599;51.564;6.990;2023-11-19T07:53:33;100315.97;;;12.03;100.00
3176;BME280;1599;51.564;6.990;2023-11-19T07:56:00;100311.41;;;11.87;100.00
3176;BME280;1599;51.564;6.990;2023-11-19T07:58:26;100325.81;;;11.94;100.00
3176;BME280;1599;51.564;6.990;2023-11-19T08:00:52;100332.84;;;11.85;100.00
3176;BME280;1599;51.564;6.990;2023-11-19T08:03:18;100341.22;;;11.95;100.00
3176;BME280;1599;51.564;6.990;2023-11-19T08:05:49;100334.59;;;11.91;100.00
3176;BME280;1599;51.564;6.990;2023-11-19T08:08:16;100337.16;;;12.02;100.00
3176;BME280;1599;51.564;6.990;2023-11-19T08:10:42;100347.88;;;11.99;100.00
3176;BME280;1599;51.564;6.990;2023-11-19T08:13:11;100343.00;;;12.06;100.00
3176;BME280;1599;51.564;6.990;2023-11-19T08:15:37;100342.44;;;12.04;100.00
3176;BME280;1599;51.564;6.990;2023-11-19T08:18:02;100350.78;;;12.14;100.00
3176;BME280;1599;51.564;6.990;2023-11-19T08:20:28;100349.22;;;12.23;100.00
3176;BME280;1599;51.564;6.990;2023-11-19T08:22:54;100357.44;;;12.18;100.00
3176;BME280;1599;51.564;6.990;2023-11-19T08:25:20;100358.06;;;12.25;100.00
3176;BME280;1599;51.564;6.990;2023-11-19T08:27:45;100347.16;;;12.35;100.00
3176;BME280;1599;51.564;6.990;2023-11-19T08:30:12;100357.94;;;12.42;100.00
3176;BME280;1599;51.564;6.990;2023-11-19T08:32:38;100359.34;;;12.44;100.00
3176;BME280;1599;51.564;6.990;2023-11-19T08:35:04;100362.72;;;12.51;100.00
3176;BME280;1599;51.564;6.990;2023-11-19T08:37:31;100368.75;;;12.48;100.00
3176;BME280;1599;51.564;6.990;2023-11-19T08:39:56;100355.53;;;12.50;100.00
3176;BME280;1599;51.564;6.990;2023-11-19T08:42:22;100358.78;;;12.42;100.00
3176;BME280;1599;51.564;6.990;2023-11-19T08:44:51;100362.72;;;12.51;100.00
3176;BME280;1599;51.564;6.990;2023-11-19T08:47:19;100356.94;;;12.53;100.00
3176;BME280;1599;51.564;6.990;2023-11-19T08:49:45;100358.88;;;12.52;100.00
3176;BME280;1599;51.564;6.990;2023-11-19T08:52:11;100358.34;;;12.55;100.00
3176;BME280;1599;51.564;6.990;2023-11-19T08:54:37;100352.84;;;12.55;100.00
3176;BME280;1599;51.564;6.990;2023-11-19T08:57:04;100352.34;;;12.63;100.00
3176;BME280;1599;51.564;6.990;2023-11-19T08:59:30;100350.81;;;12.77;100.00
3176;BME280;1599;51.564;6.990;2023-11-19T09:01:56;100345.00;;;12.74;100.00
3176;BME280;1599;51.564;6.990;2023-11-19T09:04:22;100348.72;;;12.94;100.00
3176;BME280;1599;51.564;6.990;2023-11-19T09:06:49;100363.63;;;12.98;100.00
3176;BME280;1599;51.564;6.990;2023-11-19T09:09:15;100365.84;;;12.96;100.00
3176;BME280;1599;51.564;6.990;2023-11-19T09:11:41;100352.16;;;13.12;100.00
3176;BME280;1599;51.564;6.990;2023-11-19T09:14:07;100353.31;;;13.16;100.00
3176;BME280;1599;51.564;6.990;2023-11-19T09:16:32;100356.63;;;13.18;100.00
3176;BME280;1599;51.564;6.990;2023-11-19T09:18:58;100368.88;;;13.32;100.00
3176;BME280;1599;51.564;6.990;2023-11-19T09:21:26;100347.06;;;13.35;100.00
3176;BME280;1599;51.564;6.990;2023-11-19T09:23:51;100357.84;;;13.32;100.00
3176;BME280;1599;51.564;6.990;2023-11-19T09:26:19;100354.97;;;13.17;100.00
3176;BME280;1599;51.564;6.990;2023-11-19T09:28:45;100341.84;;;13.39;100.00
3176;BME280;1599;51.564;6.990;2023-11-19T09:31:18;100357.34;;;13.45;100.00
3176;BME280;1599;51.564;6.990;2023-11-19T09:33:44;100368.91;;;13.42;100.00
3176;BME280;1599;51.564;6.990;2023-11-19T09:36:12;100376.59;;;13.35;100.00
3176;BME280;1599;51.564;6.990;2023-11-19T09:38:45;100361.66;;;13.26;100.00
3176;BME280;1599;51.564;6.990;2023-11-19T09:41:11;100365.53;;;13.30;100.00
3176;BME280;1599;51.564;6.990;2023-11-19T09:43:42;100355.03;;;13.22;100.00
3176;BME280;1599;51.564;6.990;2023-11-19T09:46:14;100356.44;;;13.29;100.00
3176;BME280;1599;51.564;6.990;2023-11-19T09:48:41;100359.94;;;13.20;100.00
3176;BME280;1599;51.564;6.990;2023-11-19T09:51:11;100358.31;;;13.19;100.00
3176;BME280;1599;51.564;6.990;2023-11-19T09:53:38;100349.81;;;13.30;100.00
3176;BME280;1599;51.564;6.990;2023-11-19T09:56:05;100349.75;;;13.20;100.00
3176;BME280;1599;51.564;6.990;2023-11-19T09:58:31;100349.22;;;13.23;100.00
3176;BME280;1599;51.564;6.990;2023-11-19T10:00:59;100359.47;;;13.33;100.00
3176;BME280;1599;51.564;6.990;2023-11-19T10:03:27;100350.34;;;13.27;100.00
3176;BME280;1599;51.564;6.990;2023-11-19T10:05:55;100349.59;;;13.37;100.00
3176;BME280;1599;51.564;6.990;2023-11-19T10:08:21;100341.31;;;13.42;100.00
3176;BME280;1599;51.564;6.990;2023-11-19T10:10:48;100345.22;;;13.51;100.00
3176;BME280;1599;51.564;6.990;2023-11-19T10:13:14;100339.16;;;13.54;100.00
3176;BME280;1599;51.564;6.990;2023-11-19T10:15:40;100333.41;;;13.60;100.00
3176;BME280;1599;51.564;6.990;2023-11-19T10:18:06;100341.94;;;13.59;100.00
3176;BME280;1599;51.564;6.990;2023-11-19T10:20:36;100341.72;;;13.66;100.00
3176;BME280;1599;51.564;6.990;2023-11-19T10:23:03;100337.28;;;13.70;100.00
3176;BME280;1599;51.564;6.990;2023-11-19T10:25:29;100340.91;;;13.75;100.00
3176;BME280;1599;51.564;6.990;2023-11-19T10:27:56;100330.94;;;13.69;100.00
3176;BME280;1599;51.564;6.990;2023-11-19T10:30:25;100329.88;;;13.85;100.00
3176;BME280;1599;51.564;6.990;2023-11-19T10:33:12;100328.78;;;13.81;100.00
3176;BME280;1599;51.564;6.990;2023-11-19T10:35:57;100325.19;;;13.81;100.00
3176;BME280;1599;51.564;6.990;2023-11-19T10:38:24;100325.75;;;13.83;100.00
3176;BME280;1599;51.564;6.990;2023-11-19T10:40:51;100315.25;;;13.80;100.00
3176;BME280;1599;51.564;6.990;2023-11-19T10:43:19;100324.38;;;13.85;100.00
3176;BME280;1599;51.564;6.990;2023-11-19T10:45:45;100324.91;;;13.82;100.00
3176;BME280;1599;51.564;6.990;2023-11-19T10:48:11;100326.56;;;13.83;100.00
3176;BME280;1599;51.564;6.990;2023-11-19T10:50:40;100328.25;;;13.89;100.00
3176;BME280;1599;51.564;6.990;2023-11-19T10:53:10;100332.13;;;13.93;100.00
3176;BME280;1599;51.564;6.990;2023-11-19T10:55:37;100315.56;;;13.93;100.00
3176;BME280;1599;51.564;6.990;2023-11-19T10:58:08;100320.00;;;13.99;100.00
3176;BME280;1599;51.564;6.990;2023-11-19T11:00:57;100315.56;;;14.03;100.00
3176;BME280;1599;51.564;6.990;2023-11-19T11:03:32;100322.25;;;14.17;100.00
3176;BME280;1599;51.564;6.990;2023-11-19T11:06:03;100313.94;;;14.22;100.00
3176;BME280;1599;51.564;6.990;2023-11-19T11:08:30;100323.88;;;14.18;100.00
3176;BME280;1599;51.564;6.990;2023-11-19T11:10:56;100322.22;;;14.02;100.00
3176;BME280;1599;51.564;6.990;2023-11-19T11:13:24;100316.38;;;13.94;100.00
3176;BME280;1599;51.564;6.990;2023-11-19T11:15:51;100319.97;;;13.89;100.00
3176;BME280;1599;51.564;6.990;2023-11-19T11:18:17;100317.22;;;13.94;100.00
3176;BME280;1599;51.564;6.990;2023-11-19T11:20:47;100321.09;;;14.03;100.00
3176;BME280;1599;51.564;6.990;2023-11-19T11:29:20;100308.41;;;14.02;100.00
3176;BME280;1599;51.564;6.990;2023-11-19T11:37:33;100310.66;;;14.20;100.00
3176;BME280;1599;51.564;6.990;2023-11-19T11:40:02;100300.72;;;14.35;100.00
3176;BME280;1599;51.564;6.990;2023-11-19T11:42:36;100307.91;;;14.36;100.00
3176;BME280;1599;51.564;6.990;2023-11-19T11:45:13;100286.34;;;14.53;100.00
3176;BME280;1599;51.564;6.990;2023-11-19T11:50:20;100289.41;;;14.41;100.00
3176;BME280;1599;51.564;6.990;2023-11-19T11:55:36;100275.31;;;14.38;100.00
3176;BME280;1599;51.564;6.990;2023-11-19T11:58:05;100279.75;;;14.39;100.00
3176;BME280;1599;51.564;6.990;2023-11-19T12:00:32;100270.31;;;14.50;100.00
3176;BME280;1599;51.564;6.990;2023-11-19T12:03:02;100278.06;;;14.53;100.00
3176;BME280;1599;51.564;6.990;2023-11-19T12:05:29;100275.28;;;14.63;100.00
3176;BME280;1599;51.564;6.990;2023-11-19T12:08:00;100278.59;;;14.75;100.00
3176;BME280;1599;51.564;6.990;2023-11-19T12:10:30;100287.97;;;14.84;100.00
3176;BME280;1599;51.564;6.990;2023-11-19T12:12:59;100276.91;;;14.79;100.00
3176;BME280;1599;51.564;6.990;2023-11-19T12:15:26;100274.69;;;14.86;100.00
3176;BME280;1599;51.564;6.990;2023-11-19T12:17:54;100279.13;;;14.82;100.00
3176;BME280;1599;51.564;6.990;2023-11-19T12:20:25;100263.63;;;14.86;100.00
3176;BME280;1599;51.564;6.990;2023-11-19T12:22:53;100275.25;;;14.88;100.00
3176;BME280;1599;51.564;6.990;2023-11-19T12:25:19;100266.66;;;14.95;100.00
3176;BME280;1599;51.564;6.990;2023-11-19T12:27:48;100261.41;;;14.98;100.00
3176;BME280;1599;51.564;6.990;2023-11-19T12:30:22;100271.38;;;14.84;100.00
3176;BME280;1599;51.564;6.990;2023-11-19T12:32:49;100253.66;;;14.90;100.00
3176;BME280;1599;51.564;6.990;2023-11-19T12:35:15;100254.22;;;14.87;100.00
3176;BME280;1599;51.564;6.990;2023-11-19T12:37:42;100263.91;;;14.84;100.00
3176;BME280;1599;51.564;6.990;2023-11-19T12:40:20;100249.25;;;14.84;100.00
3176;BME280;1599;51.564;6.990;2023-11-19T12:42:51;100246.56;;;14.54;100.00
3176;BME280;1599;51.564;6.990;2023-11-19T12:45:18;100265.34;;;14.52;100.00
3176;BME280;1599;51.564;6.990;2023-11-19T12:47:47;100252.63;;;14.15;100.00
3176;BME280;1599;51.564;6.990;2023-11-19T12:50:14;100260.84;;;13.70;100.00
3176;BME280;1599;51.564;6.990;2023-11-19T12:52:41;100250.22;;;13.27;100.00
3176;BME280;1599;51.564;6.990;2023-11-19T12:55:27;100265.47;;;12.92;100.00
3176;BME280;1599;51.564;6.990;2023-11-19T12:57:53;100271.69;;;12.78;100.00
3176;BME280;1599;51.564;6.990;2023-11-19T13:00:27;100260.34;;;12.69;100.00
3176;BME280;1599;51.564;6.990;2023-11-19T13:02:55;100263.19;;;12.84;100.00
3176;BME280;1599;51.564;6.990;2023-11-19T13:05:32;100266.03;;;12.99;100.00
3176;BME280;1599;51.564;6.990;2023-11-19T13:08:04;100273.69;;;12.87;100.00
3176;BME280;1599;51.564;6.990;2023-11-19T13:10:50;100266.00;;;12.94;100.00
3176;BME280;1599;51.564;6.990;2023-11-19T13:13:16;100265.47;;;12.92;100.00
3176;BME280;1599;51.564;6.990;2023-11-19T13:15:42;100268.81;;;13.05;100.00
3176;BME280;1599;51.564;6.990;2023-11-19T13:18:10;100273.22;;;13.00;100.00
3176;BME280;1599;51.564;6.990;2023-11-19T13:20:36;100271.03;;;13.02;100.00